Lafayette, IN (47902)

6:19 PM EST on January 31, 2015 (GMT -0500)
Potter's Hollow Of Lafayette | Change Station
CLOSE
Current Station
Personal Weather Station
Location: Lafayette, IN
Elevation: 609 ft
Nearby Weather Stations
Active Advisory: Winter Storm Warning

Elev 609 ft 40.43 °N, 86.84 °W | Updated 3 minutes ago

Mostly Cloudy
Mostly Cloudy
37.5 °F
Feels Like 38 °F
N
2.0
Wind Variable Wind from West
Gusts 3.0 mph

Today
High -- | Low -- °F
--% Chance of Precip.
Yesterday
High -- | Low -- °F
Precip. -- in
7:57 AM 6:04 PM
Waxing Gibbous, 92% visible
Pressure 30.24 in
Visibility 10.0 miles
Clouds Mostly Cloudy 2800 ft
Overcast 3400 ft
Windchill 38 °F
Dew Point 30 °F
Humidity 74%
Rainfall 0.00 in
Snow Depth Not available.
UV 0 out of 12
Pollen .10 out of 12
Air Quality Not available.
Flu Activity Not available.
METAR KLAF 312254Z 24006KT 10SM BKN028 OVC034 02/M03 A3022 RMK AO2 SLP239 T00221028

More Conditions Fewer Conditions

Pressure 30.24 in
Visibility 10.0 miles
Clouds Mostly Cloudy 2800 ft
Overcast 3400 ft
Windchill 38 °F
Dew Point 30 °F
Humidity 74%
Rainfall 0.00 in
Snow Depth Not available.
UV 0 out of 12
Pollen .10 out of 12
Air Quality Not available.
Flu Activity Not available.
METAR KLAF 312254Z 24006KT 10SM BKN028 OVC034 02/M03 A3022 RMK AO2 SLP239 T00221028

More Conditions Fewer Conditions

10-Day Weather Forecast

Almanac

Astronomy

Jan. 31, 2015 Rise Set
Actual Time
Civil Twilight
Nautical Twilight
Astronomical Twilight
Moon
Length of Visible Light
Length of Day
Tomorrow will be .
, % of the Moon is Illuminated

Today's Extremes

State Highs State Lows

Community

WunderPhotos

Upload Photos

1,792,247 photos uploaded!

WunderBlogs® & News

Nearby

Air Quality

  Air Quality AQ Index Pollutant
Not available.

Snow Depth

Station Depth Elevation

Earthquake Activity

City Distance Mag. Time & Date
Minimum magnitude displayed is 2.5.

Coastal Water Temperatures

Place Temperature

Nearby Weather Stations